Disclaimer

Please do not use the information listed here in-flight or in-navigation, as they are not provided to us by the airports but are provided by volunteers, so they might be outdated.

Search


Regions


Airport information page

Radio informations:
NATAL TWR - 118.7 MHz
NATAL OPS - 122.5 MHz
Ground (GND) - 121.9 MHz
NATAL ATIS - 132.65 MHz
NATAL APP - 119.3 MHz

Airport informations:
Latitude: 05° 54' 41.10" S
Longitude: 035° 14' 51.78" W
Elevation: 169 feet - 52 meters
Operating hours: 24 hour operations
Operating agency: Military-civil joint use airport
Timezone: UTC-3(-2DT)
Fuel: Jet A1, without icing nhibitor.

100/130 octane gasoline, leaded, MIL-L-5572F (GREEN)

Runway information:
12/30 - 5988 x 148 feet< - >1825 x 45 meters
16R/34L - 5905 x 148 feet< - >1800 x 45 meters
16L/34R - 8531 x 148 feet< - >2600 x 45 meters

Recent METARs:
SBNT 210600Z 16005KT 9999 SCT021 25/22 Q1012
SBNT 210700Z 17006KT 9999 FEW023 25/22 Q1012
SBNT 210700Z 17006KT 9999 FEW023 25/22 Q1012

Airport on the map: